createdAt,value
2019-03-22T00:01:53.029Z,39.20
2019-03-22T00:06:58.751Z,39.53
2019-03-22T00:12:04.513Z,41.70
2019-03-22T00:17:10.070Z,42.70
2019-03-22T00:22:15.620Z,40.40
2019-03-22T00:27:21.371Z,44.87
2019-03-22T00:32:26.916Z,42.73
2019-03-22T00:37:33.446Z,40.73
2019-03-22T00:42:39.113Z,40.30
2019-03-22T00:47:45.706Z,37.90
2019-03-22T00:52:51.366Z,37.07
2019-03-22T00:57:57.040Z,41.13
2019-03-22T01:03:02.505Z,40.07
2019-03-22T01:08:08.002Z,47.17
2019-03-22T01:13:14.101Z,42.07
2019-03-22T01:18:19.649Z,41.80
2019-03-22T01:23:25.648Z,40.13
2019-03-22T01:28:31.416Z,38.07
2019-03-22T01:33:37.554Z,39.33
2019-03-22T01:38:43.117Z,44.00
2019-03-22T01:43:48.689Z,38.80
2019-03-22T01:48:54.664Z,41.40
2019-03-22T01:54:00.420Z,41.73
2019-03-22T01:59:06.138Z,44.43
2019-03-22T02:04:12.051Z,38.03
2019-03-22T02:09:17.981Z,41.30
2019-03-22T02:14:23.756Z,40.43
2019-03-22T02:19:29.393Z,45.23
2019-03-22T02:24:34.966Z,44.47
2019-03-22T02:29:40.513Z,50.27
2019-03-22T02:34:48.645Z,43.73
2019-03-22T02:39:54.424Z,41.47
2019-03-22T02:45:00.003Z,43.03
2019-03-22T02:50:17.981Z,43.43
2019-03-22T02:55:14.971Z,40.93
2019-03-22T03:00:20.962Z,40.60
2019-03-22T03:05:26.662Z,43.13
2019-03-22T03:10:32.296Z,42.33
2019-03-22T03:15:37.887Z,42.43
2019-03-22T03:20:43.616Z,39.87
2019-03-22T03:25:49.132Z,44.40
2019-03-22T03:30:54.769Z,53.37
2019-03-22T03:36:00.411Z,45.47
2019-03-22T03:41:07.266Z,52.60
2019-03-22T03:46:12.896Z,45.90
2019-03-22T03:51:18.454Z,50.67
2019-03-22T03:56:24.202Z,48.83
2019-03-22T04:01:29.728Z,48.43
2019-03-22T04:06:35.531Z,45.00
2019-03-22T04:11:41.331Z,47.23
2019-03-22T04:16:46.948Z,43.90
2019-03-22T04:21:52.751Z,45.10
2019-03-22T04:26:58.310Z,44.63
2019-03-22T04:32:04.527Z,43.27
2019-03-22T04:37:10.435Z,41.30
2019-03-22T04:42:15.973Z,41.63
2019-03-22T04:47:22.612Z,50.40
2019-03-22T04:52:28.651Z,52.67
2019-03-22T04:57:34.725Z,50.40
2019-03-22T05:02:41.022Z,43.23
2019-03-22T05:07:46.976Z,45.33
2019-03-22T05:12:53.375Z,45.47
2019-03-22T05:17:59.249Z,49.73
2019-03-22T05:23:05.457Z,41.43
2019-03-22T05:28:12.944Z,45.13
2019-03-22T05:33:18.811Z,48.57
2019-03-22T05:38:24.343Z,51.97
2019-03-22T05:43:30.109Z,48.83
2019-03-22T05:48:35.633Z,45.60
2019-03-22T05:53:41.573Z,41.57
2019-03-22T05:58:48.541Z,40.93
2019-03-22T06:03:54.246Z,45.70
2019-03-22T06:09:00.005Z,45.30
2019-03-22T06:14:05.775Z,44.73
2019-03-22T06:19:11.932Z,46.10
2019-03-22T06:24:17.556Z,47.97
2019-03-22T06:29:23.272Z,41.73
2019-03-22T06:34:29.076Z,42.90
2019-03-22T06:39:36.090Z,41.03
2019-03-22T06:44:42.262Z,39.23
2019-03-22T06:49:47.866Z,47.93
2019-03-22T06:54:53.636Z,43.37
2019-03-22T07:00:06.619Z,45.70
2019-03-22T07:05:07.272Z,48.33
2019-03-22T07:10:13.119Z,52.93
2019-03-22T07:15:18.918Z,45.57
2019-03-22T07:20:25.490Z,44.90
2019-03-22T07:25:31.163Z,44.20
2019-03-22T07:30:37.242Z,41.90
2019-03-22T07:35:43.278Z,41.20
2019-03-22T07:40:48.894Z,46.00
2019-03-22T07:45:54.726Z,46.10
2019-03-22T07:51:00.387Z,44.70
2019-03-22T07:56:06.568Z,47.70
2019-03-22T08:01:12.304Z,44.03
2019-03-22T08:06:18.094Z,50.57
2019-03-22T08:11:24.894Z,45.53
2019-03-22T08:16:30.965Z,47.43
2019-03-22T08:21:36.568Z,48.23
2019-03-22T08:26:42.246Z,49.93
2019-03-22T08:31:48.316Z,58.30
2019-03-22T08:36:54.402Z,53.13
2019-03-22T08:42:00.311Z,54.40
2019-03-22T08:47:07.443Z,51.53
2019-03-22T08:52:13.207Z,48.93
2019-03-22T08:57:18.991Z,52.73
2019-03-22T09:02:25.606Z,53.93
2019-03-22T09:07:31.680Z,50.37
2019-03-22T09:12:37.970Z,46.90
2019-03-22T09:17:44.133Z,41.00
2019-03-22T09:22:50.315Z,43.20
2019-03-22T09:27:57.090Z,44.80
2019-03-22T09:33:02.763Z,39.30
2019-03-22T09:38:13.134Z,38.03
2019-03-22T09:43:17.962Z,39.87
2019-03-22T09:48:23.688Z,37.83
2019-03-22T09:53:30.569Z,41.97
2019-03-22T09:58:36.508Z,39.90
2019-03-22T10:03:42.732Z,38.10
2019-03-22T10:08:49.378Z,42.03
2019-03-22T10:13:58.124Z,39.33
2019-03-22T10:19:04.055Z,42.25
2019-03-22T10:24:12.762Z,43.02
2019-03-22T10:29:19.288Z,40.98
2019-03-22T10:34:30.061Z,42.13
2019-03-22T10:39:35.801Z,41.30
2019-03-22T10:44:41.876Z,41.60
2019-03-22T10:49:47.674Z,42.40
2019-03-22T10:54:53.508Z,45.58
2019-03-22T10:59:59.436Z,40.83
2019-03-22T11:05:15.932Z,43.68
2019-03-22T11:10:21.704Z,46.85
2019-03-22T14:08:13.688Z,37.67
2019-03-22T14:13:19.425Z,37.08
2019-03-22T14:18:25.316Z,40.05
2019-03-22T14:23:31.040Z,33.63
2019-03-22T14:28:36.796Z,32.58
2019-03-22T14:33:42.919Z,34.00
2019-03-22T14:38:49.173Z,34.50
2019-03-22T14:43:54.833Z,34.58
2019-03-22T14:49:02.430Z,32.83
2019-03-22T14:54:11.578Z,34.48
2019-03-22T14:59:17.444Z,29.15
2019-03-22T15:04:32.022Z,34.38
2019-03-22T15:09:38.488Z,30.15
2019-03-22T15:15:03.327Z,32.15
2019-03-22T15:20:27.805Z,34.43
2019-03-22T15:25:52.904Z,39.83
2019-03-22T15:31:16.597Z,40.73
2019-03-22T15:36:37.400Z,40.33
2019-03-22T15:41:46.709Z,41.20
2019-03-22T15:47:11.391Z,37.15
2019-03-22T15:52:17.260Z,39.53
2019-03-22T15:57:23.253Z,38.10
2019-03-22T16:02:28.956Z,40.00
2019-03-22T16:07:34.833Z,42.53
2019-03-22T16:12:41.081Z,38.08
2019-03-22T16:17:47.783Z,37.20
2019-03-22T16:22:55.088Z,45.58
2019-03-22T16:28:00.769Z,43.65
2019-03-22T16:33:08.714Z,35.35
2019-03-22T16:38:14.508Z,33.73
2019-03-22T16:43:20.094Z,35.20
2019-03-22T16:48:26.065Z,33.10
2019-03-22T16:53:31.860Z,35.98
2019-03-22T16:58:37.828Z,32.70
2019-03-22T17:03:43.771Z,37.50
2019-03-22T17:08:49.588Z,37.48
2019-03-22T17:13:55.197Z,34.65
2019-03-22T17:19:00.766Z,33.73
2019-03-22T17:24:06.672Z,36.98
2019-03-22T17:29:12.296Z,37.23
2019-03-22T17:34:18.292Z,36.88
2019-03-22T17:39:24.012Z,38.00
2019-03-22T17:44:29.798Z,45.60
2019-03-22T17:49:35.876Z,46.85
2019-03-22T17:54:41.497Z,48.52
2019-03-22T17:59:47.079Z,43.87
2019-03-22T18:04:52.980Z,47.33
2019-03-22T18:09:59.184Z,48.67
2019-03-22T18:15:05.524Z,49.23
2019-03-22T18:20:11.543Z,52.38
2019-03-22T18:25:17.204Z,51.55
2019-03-22T18:30:24.118Z,50.83
2019-03-22T18:35:31.482Z,50.00
2019-03-22T18:40:37.144Z,52.05
2019-03-22T18:45:43.054Z,52.03
2019-03-22T18:50:56.389Z,52.93
2019-03-22T18:55:55.884Z,54.18
2019-03-22T19:01:01.807Z,56.48
2019-03-22T19:06:08.566Z,54.40
2019-03-22T19:11:21.970Z,57.43
2019-03-22T19:16:27.564Z,56.47
2019-03-22T19:21:33.130Z,53.53
2019-03-22T19:26:38.800Z,56.90
2019-03-22T19:31:47.076Z,59.40
2019-03-22T19:36:55.702Z,57.58
2019-03-22T19:42:01.328Z,58.00
2019-03-22T19:47:06.931Z,60.10
2019-03-22T19:52:12.739Z,59.30
2019-03-22T19:57:18.641Z,52.00
2019-03-22T20:02:24.541Z,53.73
2019-03-22T20:07:30.160Z,57.43
2019-03-22T20:12:35.732Z,54.37
2019-03-22T20:17:41.431Z,54.00
2019-03-22T20:22:47.333Z,55.10
2019-03-22T20:27:55.130Z,56.17
2019-03-22T20:33:00.922Z,52.70
2019-03-22T20:38:06.930Z,52.93
2019-03-22T20:43:12.812Z,52.70
2019-03-22T20:48:18.452Z,50.77
2019-03-22T20:53:24.224Z,51.30
2019-03-22T20:58:29.948Z,51.57
2019-03-22T21:03:35.512Z,52.13
2019-03-22T21:08:41.305Z,49.40
2019-03-22T21:13:46.958Z,50.37
2019-03-22T21:18:52.614Z,51.93
2019-03-22T21:23:58.369Z,52.57
2019-03-22T21:29:04.492Z,52.60
2019-03-22T21:34:10.290Z,53.30
2019-03-22T21:39:17.230Z,52.33
2019-03-22T21:44:23.511Z,53.93
2019-03-22T21:49:30.135Z,54.40
2019-03-22T21:54:35.916Z,53.23
2019-03-22T21:59:41.740Z,54.40
2019-03-22T22:04:47.449Z,53.80
2019-03-22T22:09:53.108Z,53.53
2019-03-22T22:14:58.604Z,55.10
2019-03-22T22:20:04.188Z,50.77
2019-03-22T22:25:14.854Z,51.07
2019-03-22T22:30:20.501Z,49.67
2019-03-22T22:35:26.212Z,51.07
2019-03-22T22:40:31.954Z,49.53
2019-03-22T22:45:37.808Z,50.10
2019-03-22T22:50:43.443Z,49.50
2019-03-22T22:55:49.333Z,50.00
2019-03-22T23:00:54.924Z,52.27
2019-03-22T23:06:09.432Z,51.60
2019-03-22T23:11:10.339Z,48.57
2019-03-22T23:16:15.907Z,49.47
2019-03-22T23:21:21.635Z,51.90
2019-03-22T23:26:27.583Z,51.33
2019-03-22T23:31:33.831Z,49.33
2019-03-22T23:36:39.698Z,52.67
2019-03-22T23:41:45.290Z,53.73
2019-03-22T23:46:51.039Z,49.70
2019-03-22T23:51:56.714Z,52.37
2019-03-22T23:57:02.435Z,50.77
